Time;durP1;ratioP1;P1;durP2;ratioP2;P2;SDS_P1;SDS_P2;PMS_P1;PMS_P2;Temp;Humidity;BMP_temperature;BMP_pressure;BME280_temperature;BME280_humidity;BME280_pressure;Samples;Min_cycle;Max_cycle;Signal;HPM_P1;HPM_P2
2023/12/12 00:00:56;;;;;;;4.35;1.23;;;17.30;76.90;;;;;;5902357;23;46431;-60
2023/12/12 00:03:23;;;;;;;4.13;0.90;;;17.20;76.80;;;;;;5908450;23;45121;-60
2023/12/12 00:06:13;;;;;;;3.47;1.13;;;17.30;76.60;;;;;;5894833;23;45347;-60
2023/12/12 00:08:53;;;;;;;3.60;0.90;;;17.30;76.70;;;;;;5904100;23;45340;-60
2023/12/12 00:11:42;;;;;;;2.55;0.80;;;17.30;76.80;;;;;;5952408;23;47165;-59
2023/12/12 00:14:31;;;;;;;3.70;1.23;;;17.30;76.70;;;;;;5931056;23;45022;-59
2023/12/12 00:17:11;;;;;;;4.28;1.40;;;17.30;77.00;;;;;;5904017;23;45243;-60
2023/12/12 00:20:01;;;;;;;2.30;0.80;;;17.30;76.90;;;;;;5937552;23;45269;-59
2023/12/12 00:22:45;;;;;;;3.13;0.95;;;17.30;77.60;;;;;;5913817;23;45223;-60
2023/12/12 00:25:31;;;;;;;3.60;1.20;;;17.30;77.60;;;;;;5905105;23;45150;-60
2023/12/12 00:31:02;;;;;;;2.40;0.82;;;17.40;77.30;;;;;;5904049;23;45246;-60
2023/12/12 00:33:37;;;;;;;1.77;1.00;;;17.40;77.20;;;;;;5912316;23;45397;-60
2023/12/12 00:36:23;;;;;;;2.10;0.88;;;17.40;77.00;;;;;;5904147;23;45132;-60
2023/12/12 00:39:13;;;;;;;2.45;1.02;;;17.40;77.00;;;;;;5917090;23;45251;-60
2023/12/12 00:42:04;;;;;;;1.35;0.70;;;17.40;76.80;;;;;;5904555;23;45160;-59
2023/12/12 00:44:30;;;;;;;1.80;0.88;;;17.40;76.80;;;;;;5897636;23;46654;-60
2023/12/12 00:50:20;;;;;;;2.42;0.90;;;17.40;76.70;;;;;;5869845;23;44942;-60
2023/12/12 00:55:55;;;;;;;2.22;0.98;;;17.40;76.40;;;;;;5878133;23;45620;-60
2023/12/12 00:58:52;;;;;;;3.70;1.05;;;17.40;76.40;;;;;;5903372;23;45273;-60
2023/12/12 01:01:31;;;;;;;2.75;0.90;;;17.40;76.50;;;;;;5862788;23;45424;-60
2023/12/12 01:40:04;;;;;;;2.70;1.20;;;17.40;76.00;;;;;;4934786;27;44781;-60
2023/12/12 01:42:31;;;;;;;3.35;1.25;;;17.30;75.90;;;;;;4938500;27;44870;-60
2023/12/12 01:44:59;;;;;;;3.92;1.17;;;17.30;75.90;;;;;;4938708;27;44803;-60
2023/12/12 01:47:41;;;;;;;3.83;1.10;;;17.40;76.00;;;;;;4941147;27;45004;-60
2023/12/12 01:50:18;;;;;;;3.38;1.20;;;17.40;76.00;;;;;;4923051;27;45951;-60
2023/12/12 01:55:40;;;;;;;3.70;1.20;;;17.40;76.00;;;;;;4936800;27;44847;-60
2023/12/12 01:58:07;;;;;;;3.03;1.00;;;17.30;75.90;;;;;;4935226;27;44937;-61
2023/12/12 02:00:37;;;;;;;2.08;1.00;;;17.30;75.40;;;;;;4936801;27;45924;-61
2023/12/12 02:03:05;;;;;;;6.60;1.25;;;17.40;75.20;;;;;;4948957;27;45123;-61
2023/12/12 02:05:35;;;;;;;3.78;1.20;;;17.30;75.40;;;;;;4941587;27;45039;-61
2023/12/12 02:08:02;;;;;;;4.93;1.15;;;17.30;75.30;;;;;;4955278;27;44999;-60
2023/12/12 02:10:31;;;;;;;3.03;0.98;;;17.30;75.10;;;;;;4941313;27;45601;-61
2023/12/12 02:13:18;;;;;;;3.38;0.80;;;17.40;75.30;;;;;;4942506;27;44758;-61
2023/12/12 02:15:45;;;;;;;3.00;0.98;;;17.30;75.00;;;;;;4925899;27;44887;-61
2023/12/12 02:18:13;;;;;;;3.38;1.23;;;17.30;74.90;;;;;;4945748;27;44856;-61
2023/12/12 02:20:41;;;;;;;3.60;1.15;;;17.30;74.40;;;;;;4936639;27;46395;-61
2023/12/12 02:23:23;;;;;;;4.22;1.20;;;17.30;74.60;;;;;;4937374;27;44944;-61
2023/12/12 02:25:51;;;;;;;3.25;0.85;;;17.30;74.60;;;;;;4931721;27;44856;-61
2023/12/12 02:28:19;;;;;;;3.35;0.80;;;17.30;74.70;;;;;;4933746;27;44810;-61
2023/12/12 02:30:54;;;;;;;3.35;1.27;;;17.30;74.60;;;;;;4945941;27;46228;-61
2023/12/12 02:33:41;;;;;;;4.90;1.20;;;17.30;74.60;;;;;;4943721;27;45091;-61
2023/12/12 02:36:09;;;;;;;3.53;1.08;;;17.40;74.80;;;;;;4930372;27;44835;-60
2023/12/12 02:38:38;;;;;;;3.13;1.10;;;17.30;74.60;;;;;;4930098;27;45063;-61
2023/12/12 02:41:06;;;;;;;3.20;1.00;;;17.30;74.60;;;;;;4916259;27;46394;-60
2023/12/12 02:43:33;;;;;;;2.78;1.13;;;17.30;74.20;;;;;;4912030;27;44800;-60
2023/12/12 02:46:10;;;;;;;2.75;0.70;;;17.30;74.30;;;;;;4933666;27;44808;-61
2023/12/12 02:48:38;;;;;;;6.53;1.33;;;17.30;74.30;;;;;;4926516;27;44794;-61
2023/12/12 02:51:15;;;;;;;3.33;0.98;;;17.30;74.30;;;;;;4925020;27;46285;-61
2023/12/12 02:53:45;;;;;;;3.53;1.08;;;17.30;74.20;;;;;;4925613;27;45038;-61
2023/12/12 02:56:21;;;;;;;3.05;0.95;;;17.30;74.10;;;;;;4936394;27;44937;-61
2023/12/12 02:59:04;;;;;;;2.38;0.98;;;17.30;74.10;;;;;;4949904;27;44814;-61
2023/12/12 03:01:31;;;;;;;2.53;1.00;;;17.30;74.00;;;;;;4930137;27;45234;-61
2023/12/12 03:03:58;;;;;;;3.50;1.27;;;17.30;74.10;;;;;;4940357;27;44770;-61
2023/12/12 03:06:27;;;;;;;4.40;1.25;;;17.30;74.10;;;;;;4913288;27;45018;-61
2023/12/12 03:08:57;;;;;;;5.93;1.50;;;17.30;73.90;;;;;;4918456;27;45020;-61
2023/12/12 03:11:25;;;;;;;8.30;1.58;;;17.30;73.50;;;;;;4921442;27;46132;-59
2023/12/12 03:13:51;;;;;;;5.55;1.17;;;17.30;73.60;;;;;;4904231;27;44855;-59
2023/12/12 03:16:19;;;;;;;5.38;1.23;;;17.30;73.40;;;;;;4925631;27;44861;-59
2023/12/12 03:18:46;;;;;;;3.90;1.40;;;17.30;74.70;;;;;;4937797;27;45363;-59
2023/12/12 03:21:13;;;;;;;3.95;1.23;;;17.30;73.50;;;;;;4931540;27;46240;-59
2023/12/12 03:23:39;;;;;;;5.00;1.02;;;17.30;73.60;;;;;;4943239;27;44815;-61
2023/12/12 03:26:11;;;;;;;5.35;1.10;;;17.30;73.50;;;;;;4927762;27;44706;-61
2023/12/12 03:28:39;;;;;;;2.88;1.02;;;17.30;73.50;;;;;;4911958;27;45043;-61
2023/12/12 03:31:05;;;;;;;6.72;1.27;;;17.30;73.50;;;;;;4924902;27;46562;-61
2023/12/12 03:33:32;;;;;;;4.05;1.58;;;17.30;73.50;;;;;;4939145;27;44897;-61
2023/12/12 03:35:59;;;;;;;5.25;1.10;;;17.30;73.50;;;;;;4915603;27;44903;-61
2023/12/12 03:38:27;;;;;;;5.07;1.42;;;17.30;73.30;;;;;;4900840;27;45031;-61
2023/12/12 03:40:53;;;;;;;3.42;1.05;;;17.30;73.20;;;;;;4916579;27;46178;-61
2023/12/12 03:43:22;;;;;;;5.43;1.20;;;17.30;73.30;;;;;;4917506;27;44828;-61
2023/12/12 03:45:50;;;;;;;5.35;1.42;;;17.30;73.10;;;;;;4929605;27;44866;-61
2023/12/12 03:48:18;;;;;;;5.00;1.23;;;17.30;72.90;;;;;;4918075;27;44951;-61
2023/12/12 03:50:46;;;;;;;4.80;1.38;;;17.30;72.90;;;;;;4943907;27;45796;-61
2023/12/12 03:53:13;;;;;;;2.42;1.05;;;17.30;72.80;;;;;;4918044;27;44813;-61
2023/12/12 03:55:44;;;;;;;4.55;1.23;;;17.30;72.80;;;;;;4934910;27;44989;-61
2023/12/12 03:58:26;;;;;;;3.38;0.93;;;17.30;72.60;;;;;;4946705;27;44783;-61
2023/12/12 04:01:06;;;;;;;2.78;1.17;;;17.30;72.60;;;;;;4950920;27;46305;-61
2023/12/12 04:03:33;;;;;;;5.82;1.23;;;17.30;72.60;;;;;;4945132;27;44935;-61
2023/12/12 04:06:24;;;;;;;4.38;1.55;;;17.30;72.70;;;;;;4952052;27;44870;-62
2023/12/12 04:09:01;;;;;;;7.85;1.33;;;17.30;72.80;;;;;;4924100;27;44766;-62
2023/12/12 04:11:56;;;;;;;3.92;1.30;;;17.30;72.60;;;;;;4938295;27;46573;-62
2023/12/12 04:14:40;;;;;;;3.03;0.80;;;17.30;72.30;;;;;;4927849;27;45267;-62
2023/12/12 04:19:48;;;;;;;2.80;1.17;;;17.30;73.40;;;;;;4919830;27;44917;-62
2023/12/12 04:22:16;;;;;;;3.42;0.98;;;17.30;72.40;;;;;;4926260;27;45647;-62
2023/12/12 04:24:42;;;;;;;3.30;0.90;;;17.30;72.40;;;;;;4913346;27;44966;-62
2023/12/12 04:27:11;;;;;;;4.13;1.05;;;17.30;72.30;;;;;;4938702;27;45008;-62
2023/12/12 04:29:38;;;;;;;2.15;0.90;;;17.30;72.30;;;;;;4935159;27;45342;-62
2023/12/12 04:32:38;;;;;;;2.78;1.10;;;17.30;72.40;;;;;;4939582;27;45179;-62
2023/12/12 04:35:08;;;;;;;3.03;1.02;;;17.30;72.40;;;;;;4935709;27;44834;-61
2023/12/12 04:37:35;;;;;;;2.60;0.88;;;17.30;72.40;;;;;;4923099;27;45081;-61
2023/12/12 04:40:08;;;;;;;3.15;1.05;;;17.30;72.40;;;;;;4916091;27;45119;-62
2023/12/12 04:42:45;;;;;;;3.67;1.40;;;17.30;72.10;;;;;;4899917;27;46210;-62
2023/12/12 04:45:19;;;;;;;3.28;1.15;;;17.30;72.10;;;;;;4914979;27;44889;-62
2023/12/12 04:48:01;;;;;;;3.22;0.82;;;17.30;71.70;;;;;;4891125;27;44914;-62
2023/12/12 04:50:28;;;;;;;4.22;1.48;;;17.30;72.10;;;;;;4909398;27;45046;-62
2023/12/12 04:52:57;;;;;;;3.13;1.13;;;17.30;72.00;;;;;;4913616;27;46594;-62
2023/12/12 04:55:27;;;;;;;2.13;1.13;;;17.30;71.90;;;;;;4938181;27;44832;-62
2023/12/12 04:58:05;;;;;;;4.13;1.10;;;17.30;71.90;;;;;;4933937;27;44842;-62
2023/12/12 05:00:31;;;;;;;5.07;1.20;;;17.30;72.10;;;;;;4920084;27;44876;-62
2023/12/12 05:03:00;;;;;;;4.93;1.10;;;17.30;72.10;;;;;;4942566;27;46372;-62
2023/12/12 05:05:36;;;;;;;4.68;1.27;;;17.30;72.10;;;;;;4947797;27;44746;-62
2023/12/12 05:08:06;;;;;;;4.75;1.10;;;17.30;72.10;;;;;;4935997;27;44822;-62
2023/12/12 05:10:35;;;;;;;4.88;1.05;;;17.30;72.10;;;;;;4917149;27;45197;-62
2023/12/12 05:13:07;;;;;;;3.70;1.20;;;17.30;72.00;;;;;;4897950;27;47322;-62
2023/12/12 05:15:46;;;;;;;4.15;1.08;;;17.30;71.80;;;;;;4919551;27;44930;-63
2023/12/12 05:18:25;;;;;;;5.10;1.08;;;17.30;72.10;;;;;;4921018;27;44862;-62
2023/12/12 05:20:56;;;;;;;2.90;0.90;;;17.20;71.90;;;;;;4914107;27;45111;-62
2023/12/12 05:23:27;;;;;;;3.42;1.13;;;17.20;72.00;;;;;;4937461;27;46104;-62
2023/12/12 05:25:55;;;;;;;3.53;1.10;;;17.20;72.00;;;;;;4916991;27;45330;-63
2023/12/12 05:28:36;;;;;;;2.85;1.13;;;17.20;72.10;;;;;;4935985;27;44806;-63
2023/12/12 05:31:02;;;;;;;3.50;1.17;;;17.20;72.00;;;;;;4924686;27;44876;-63
2023/12/12 05:33:41;;;;;;;4.93;1.17;;;17.20;72.10;;;;;;4936168;27;45618;-63
2023/12/12 05:36:13;;;;;;;3.85;1.13;;;17.20;72.00;;;;;;4940601;27;44883;-63
2023/12/12 05:38:46;;;;;;;3.47;1.15;;;17.20;72.20;;;;;;4947965;27;44945;-63
2023/12/12 05:41:16;;;;;;;3.00;1.23;;;17.20;72.20;;;;;;4942277;27;44841;-63
2023/12/12 05:43:44;;;;;;;3.92;1.55;;;17.20;72.10;;;;;;4935486;27;46538;-64
2023/12/12 05:46:20;;;;;;;4.57;1.40;;;17.30;72.20;;;;;;4945708;27;44746;-63
2023/12/12 05:48:52;;;;;;;5.78;1.40;;;17.20;72.20;;;;;;4954014;27;44918;-63
2023/12/12 05:51:34;;;;;;;3.78;1.55;;;17.20;72.50;;;;;;4951331;27;45002;-63
2023/12/12 05:54:14;;;;;;;3.22;1.33;;;17.10;72.80;;;;;;4941749;27;46173;-63
2023/12/12 05:56:53;;;;;;;1.98;1.10;;;17.10;72.90;;;;;;4927087;27;44999;-63
2023/12/12 05:59:22;;;;;;;3.33;1.20;;;17.00;72.70;;;;;;4917559;27;44943;-62
2023/12/12 06:01:50;;;;;;;3.97;1.10;;;17.10;71.90;;;;;;4933214;27;44794;-63
2023/12/12 06:07:01;;;;;;;2.38;1.02;;;17.10;71.30;;;;;;4908427;27;44842;-63
2023/12/12 06:12:11;;;;;;;6.13;1.42;;;17.10;70.80;;;;;;4904751;27;45130;-63
2023/12/12 06:14:52;;;;;;;4.63;1.27;;;17.10;70.80;;;;;;4952373;27;45320;-63
2023/12/12 06:17:19;;;;;;;4.53;1.50;;;17.10;70.70;;;;;;4914547;27;44772;-63
2023/12/12 06:20:02;;;;;;;3.22;1.40;;;17.10;70.40;;;;;;4936867;27;44837;-64
2023/12/12 06:22:29;;;;;;;4.60;1.30;;;17.10;70.30;;;;;;4910124;27;45048;-64
2023/12/12 06:24:57;;;;;;;5.57;1.20;;;17.10;70.10;;;;;;4930653;27;46248;-62
2023/12/12 06:27:41;;;;;;;5.75;1.25;;;17.00;70.00;;;;;;4917793;27;44911;-64
2023/12/12 06:30:10;;;;;;;4.28;1.23;;;17.00;69.70;;;;;;4921884;27;44794;-64
2023/12/12 06:32:46;;;;;;;6.22;1.40;;;17.10;70.00;;;;;;4908653;27;44876;-64
2023/12/12 06:35:23;;;;;;;3.67;1.25;;;17.00;69.90;;;;;;4927635;27;46304;-63
2023/12/12 06:37:51;;;;;;;6.00;1.67;;;17.10;70.30;;;;;;4917268;27;44900;-63
2023/12/12 06:40:27;;;;;;;4.32;1.30;;;17.10;70.40;;;;;;4933919;27;44792;-63
2023/12/12 06:42:55;;;;;;;4.60;1.10;;;17.10;70.50;;;;;;4928761;27;45124;-63
2023/12/12 06:45:23;;;;;;;4.28;1.48;;;17.10;70.60;;;;;;4942616;27;45397;-63
2023/12/12 06:48:00;;;;;;;4.30;1.42;;;17.10;70.60;;;;;;4941228;27;44818;-63
2023/12/12 06:50:29;;;;;;;2.20;0.98;;;17.10;70.70;;;;;;4921256;27;45318;-63
2023/12/12 06:52:57;;;;;;;4.25;1.45;;;17.10;70.80;;;;;;4929548;27;45078;-63
2023/12/12 06:55:24;;;;;;;5.72;1.67;;;17.20;70.80;;;;;;4939646;27;45734;-63
2023/12/12 06:58:03;;;;;;;3.50;1.65;;;17.20;70.80;;;;;;4958453;27;44866;-63
2023/12/12 07:00:34;;;;;;;6.68;1.67;;;17.20;70.90;;;;;;4959782;27;45474;-63
2023/12/12 07:03:00;;;;;;;5.18;1.35;;;17.20;70.90;;;;;;4946010;27;44879;-63
2023/12/12 07:05:30;;;;;;;4.70;1.52;;;17.20;71.00;;;;;;4949582;27;46603;-63
2023/12/12 07:07:58;;;;;;;2.72;0.95;;;17.20;71.00;;;;;;4927781;27;44885;-63
2023/12/12 07:10:24;;;;;;;4.47;1.27;;;17.20;71.00;;;;;;4943800;27;44622;-63
2023/12/12 07:12:55;;;;;;;4.82;1.33;;;17.20;70.90;;;;;;4948466;27;44900;-63
2023/12/12 07:15:36;;;;;;;6.13;1.50;;;17.20;71.00;;;;;;4936723;27;46276;-63
2023/12/12 07:18:07;;;;;;;3.03;1.10;;;17.20;71.00;;;;;;4953581;27;44701;-63
2023/12/12 07:20:38;;;;;;;3.88;1.30;;;17.30;71.20;;;;;;4963879;27;44833;-63
2023/12/12 07:23:20;;;;;;;2.90;1.05;;;17.30;71.20;;;;;;4967469;27;44866;-63
2023/12/12 07:25:48;;;;;;;3.58;1.17;;;17.20;71.20;;;;;;4968565;27;46332;-62
2023/12/12 07:28:30;;;;;;;4.63;1.20;;;17.20;71.20;;;;;;4949541;27;44735;-62
2023/12/12 07:31:06;;;;;;;4.72;1.27;;;17.30;71.30;;;;;;4930502;27;44869;-62
2023/12/12 07:33:43;;;;;;;3.83;1.23;;;17.20;71.20;;;;;;4955720;27;45102;-62
2023/12/12 07:36:13;;;;;;;5.63;1.42;;;17.30;71.20;;;;;;4944788;27;46359;-62
2023/12/12 07:38:53;;;;;;;6.05;1.45;;;17.30;71.30;;;;;;4946284;27;45063;-62
2023/12/12 07:41:20;;;;;;;5.47;1.48;;;17.30;71.20;;;;;;4943632;27;44930;-62
2023/12/12 07:43:50;;;;;;;3.83;0.82;;;17.30;71.30;;;;;;4960898;27;44862;-62
2023/12/12 07:46:20;;;;;;;4.32;1.73;;;17.30;71.30;;;;;;4985561;27;46540;-62
2023/12/12 07:48:48;;;;;;;3.05;1.00;;;17.30;71.30;;;;;;4951293;27;44915;-62
2023/12/12 07:51:47;;;;;;;8.18;1.63;;;17.30;71.20;;;;;;4949117;27;44925;-62
2023/12/12 07:57:00;;;;;;;4.55;1.17;;;17.30;71.20;;;;;;4963214;27;45404;-62
2023/12/12 07:59:30;;;;;;;4.22;1.10;;;17.30;71.20;;;;;;4961041;27;44765;-62
2023/12/12 08:01:57;;;;;;;3.10;1.10;;;17.30;71.40;;;;;;4968734;27;44799;-62
2023/12/12 08:04:26;;;;;;;5.40;1.38;;;17.30;71.40;;;;;;4975065;27;44950;-62
2023/12/12 08:06:56;;;;;;;3.58;1.17;;;17.20;71.40;;;;;;4950207;27;46258;-63
2023/12/12 08:09:35;;;;;;;3.47;1.00;;;17.30;71.40;;;;;;4929403;27;45021;-62
2023/12/12 08:12:03;;;;;;;3.53;1.30;;;17.30;71.40;;;;;;4961497;27;44865;-62
2023/12/12 08:14:45;;;;;;;4.20;1.40;;;17.30;71.40;;;;;;4981908;27;44975;-62
2023/12/12 08:17:26;;;;;;;4.47;1.30;;;17.30;71.50;;;;;;4975227;27;46989;-62
2023/12/12 08:19:54;;;;;;;4.75;1.30;;;17.30;71.40;;;;;;4912712;27;45177;-62
2023/12/12 08:22:34;;;;;;;3.22;0.80;;;17.30;71.40;;;;;;4945609;27;44894;-62
2023/12/12 08:25:05;;;;;;;3.90;1.10;;;17.30;71.40;;;;;;4960503;27;44803;-62
2023/12/12 08:27:37;;;;;;;4.70;0.98;;;17.30;71.40;;;;;;4969389;27;47367;-62
2023/12/12 08:30:22;;;;;;;5.47;1.20;;;17.30;71.40;;;;;;4951859;27;44952;-62
2023/12/12 08:32:51;;;;;;;4.55;1.10;;;17.30;71.30;;;;;;4957017;27;44862;-62
2023/12/12 08:35:33;;;;;;;4.47;0.90;;;17.30;71.20;;;;;;4971129;27;44788;-63
2023/12/12 08:38:02;;;;;;;3.65;1.30;;;17.30;71.40;;;;;;4950963;27;46607;-62
2023/12/12 08:40:41;;;;;;;3.67;1.08;;;17.30;71.30;;;;;;4951313;27;44898;-62
2023/12/12 08:43:08;;;;;;;3.13;1.10;;;17.30;71.30;;;;;;4956297;27;44840;-62
2023/12/12 08:45:35;;;;;;;3.20;0.93;;;17.40;71.30;;;;;;4951177;27;44816;-62
2023/12/12 08:48:02;;;;;;;1.48;0.70;;;17.40;71.40;;;;;;4946362;27;46093;-62
2023/12/12 08:50:29;;;;;;;4.10;1.05;;;17.30;71.20;;;;;;4956571;27;45069;-62
2023/12/12 08:52:57;;;;;;;3.90;1.00;;;17.40;71.30;;;;;;4947455;27;44830;-62
2023/12/12 08:55:28;;;;;;;3.30;0.98;;;17.30;71.20;;;;;;4949145;27;45110;-62
2023/12/12 08:57:56;;;;;;;3.00;1.25;;;17.30;71.20;;;;;;4948170;27;46034;-62
2023/12/12 09:00:23;;;;;;;2.60;0.93;;;17.40;71.40;;;;;;4949936;27;44726;-62
2023/12/12 09:02:52;;;;;;;2.63;0.98;;;17.40;71.40;;;;;;4958009;27;44938;-62
2023/12/12 09:05:22;;;;;;;3.33;1.45;;;17.30;71.40;;;;;;4964357;27;45068;-62
2023/12/12 09:08:04;;;;;;;2.50;0.80;;;17.30;71.40;;;;;;4971268;27;46363;-62
2023/12/12 09:10:36;;;;;;;1.92;0.90;;;17.40;71.60;;;;;;4957170;27;44885;-62
2023/12/12 09:13:03;;;;;;;2.75;0.93;;;17.30;71.40;;;;;;4939158;27;44816;-62
2023/12/12 09:15:58;;;;;;;2.20;0.70;;;17.40;71.40;;;;;;4979600;27;45053;-62
2023/12/12 09:24:36;;;;;;;2.10;0.90;;;17.30;71.30;;;;;;4965081;27;45176;-61
2023/12/12 09:27:16;;;;;;;2.00;0.80;;;17.30;71.30;;;;;;4967724;27;45324;-61
2023/12/12 09:30:04;;;;;;;3.25;0.98;;;17.40;71.40;;;;;;4989434;27;44814;-61
2023/12/12 09:32:42;;;;;;;3.45;1.20;;;17.30;71.20;;;;;;4988622;27;46241;-61
2023/12/12 09:35:11;;;;;;;2.63;0.90;;;17.40;71.20;;;;;;4976286;27;44709;-61
2023/12/12 09:37:52;;;;;;;1.40;0.70;;;17.40;71.20;;;;;;4974344;27;44842;-61
2023/12/12 09:40:48;;;;;;;3.20;0.95;;;17.40;71.10;;;;;;5002026;27;44796;-61
2023/12/12 09:43:26;;;;;;;3.25;0.80;;;17.40;71.20;;;;;;5012461;27;45782;-61
2023/12/12 09:46:15;;;;;;;1.13;0.70;;;17.40;71.20;;;;;;4983386;27;44811;-61
2023/12/12 09:48:49;;;;;;;2.60;0.88;;;17.40;71.20;;;;;;4973897;27;44807;-61
2023/12/12 09:54:31;;;;;;;5.18;1.05;;;17.40;71.20;;;;;;4980832;27;44838;-61
2023/12/12 09:56:59;;;;;;;2.60;0.80;;;17.40;71.30;;;;;;4990741;27;44832;-61
2023/12/12 09:59:28;;;;;;;3.40;1.10;;;17.40;71.40;;;;;;4961500;27;44755;-61
2023/12/12 10:02:24;;;;;;;4.95;1.15;;;17.40;71.30;;;;;;4984338;27;44857;-61
2023/12/12 10:05:02;;;;;;;1.42;0.90;;;17.40;71.30;;;;;;4966412;27;46405;-61
2023/12/12 10:07:31;;;;;;;2.83;0.80;;;17.40;71.30;;;;;;4968129;27;44660;-61
2023/12/12 10:10:05;;;;;;;3.33;1.08;;;17.40;71.20;;;;;;4978278;27;44843;-61
2023/12/12 10:12:41;;;;;;;4.05;0.90;;;17.40;71.30;;;;;;4949563;27;44893;-61
2023/12/12 10:15:23;;;;;;;3.13;1.00;;;17.40;71.40;;;;;;4975113;27;46511;-61
2023/12/12 10:17:56;;;;;;;3.10;0.88;;;17.40;71.40;;;;;;4959788;27;44830;-61
2023/12/12 10:23:36;;;;;;;2.63;1.20;;;17.40;71.20;;;;;;4983935;27;45008;-61
2023/12/12 10:26:39;;;;;;;3.03;1.17;;;17.40;71.20;;;;;;4976931;27;45473;-61
2023/12/12 10:29:07;;;;;;;4.45;1.13;;;17.40;71.30;;;;;;4975750;27;45180;-61
2023/12/12 10:31:50;;;;;;;2.80;1.10;;;17.40;71.30;;;;;;4999699;27;44585;-61
2023/12/12 10:34:27;;;;;;;2.22;0.75;;;17.40;71.30;;;;;;4971289;27;44970;-61
2023/12/12 10:36:55;;;;;;;3.25;0.70;;;17.40;71.20;;;;;;4961380;27;46511;-61
2023/12/12 10:39:25;;;;;;;2.10;0.70;;;17.40;71.30;;;;;;4955822;27;44927;-61
2023/12/12 10:42:07;;;;;;;3.45;0.77;;;17.40;71.30;;;;;;4973475;27;45027;-61
2023/12/12 10:44:44;;;;;;;1.77;0.73;;;17.40;71.30;;;;;;4971671;27;44914;-61
2023/12/12 10:47:15;;;;;;;2.67;0.82;;;17.40;71.30;;;;;;4984681;27;46170;-61
2023/12/12 10:49:53;;;;;;;4.93;1.10;;;17.40;71.30;;;;;;4969231;27;44825;-61
2023/12/12 10:52:20;;;;;;;2.17;0.95;;;17.40;71.40;;;;;;4956824;27;44872;-61
2023/12/12 10:54:48;;;;;;;1.95;0.77;;;17.40;71.50;;;;;;4979274;27;44845;-61
2023/12/12 10:57:21;;;;;;;3.45;0.80;;;17.40;71.50;;;;;;4992840;27;46555;-61
2023/12/12 10:59:51;;;;;;;4.00;1.00;;;17.40;71.40;;;;;;4974019;27;44873;-61
2023/12/12 11:02:20;;;;;;;3.17;1.27;;;17.40;71.40;;;;;;4976716;27;45049;-61
2023/12/12 11:04:51;;;;;;;2.67;0.90;;;17.40;71.40;;;;;;4978263;27;45045;-61
2023/12/12 11:07:20;;;;;;;1.83;0.90;;;17.40;71.50;;;;;;4961060;27;46401;-61
2023/12/12 11:09:48;;;;;;;2.85;0.80;;;17.40;71.50;;;;;;4954918;27;44987;-61
2023/12/12 11:12:15;;;;;;;3.05;0.68;;;17.40;71.40;;;;;;4948440;27;44724;-61
2023/12/12 11:14:50;;;;;;;2.65;0.65;;;17.40;71.40;;;;;;4966498;27;45109;-61
2023/12/12 11:20:24;;;;;;;2.65;1.10;;;17.40;71.40;;;;;;4947436;27;44883;-61
2023/12/12 11:22:52;;;;;;;1.20;0.60;;;17.40;71.40;;;;;;4936136;27;44773;-61
2023/12/12 11:25:22;;;;;;;4.10;0.80;;;17.40;71.50;;;;;;4989449;27;44795;-61
2023/12/12 11:27:59;;;;;;;1.60;0.90;;;17.40;71.40;;;;;;4946153;27;46584;-61
2023/12/12 11:30:41;;;;;;;3.35;0.82;;;17.40;71.40;;;;;;4949097;27;45221;-61
2023/12/12 11:33:19;;;;;;;1.48;0.80;;;17.40;71.40;;;;;;4913188;27;44893;-61
2023/12/12 11:35:49;;;;;;;2.03;1.13;;;17.40;71.30;;;;;;4902605;27;44888;-61
2023/12/12 11:38:46;;;;;;;3.00;0.90;;;17.40;71.10;;;;;;4917725;27;46280;-61
2023/12/12 11:41:15;;;;;;;3.30;0.90;;;17.40;71.20;;;;;;4914936;27;44844;-61
2023/12/12 11:44:05;;;;;;;3.45;0.90;;;17.40;71.40;;;;;;4929307;27;44763;-61
2023/12/12 11:46:58;;;;;;;2.08;0.95;;;17.40;71.60;;;;;;4922869;27;44898;-61
2023/12/12 11:49:26;;;;;;;2.33;0.95;;;17.40;71.50;;;;;;4928648;27;47656;-61
2023/12/12 11:51:53;;;;;;;2.97;0.80;;;17.40;71.50;;;;;;4940665;27;44923;-61
2023/12/12 11:54:23;;;;;;;3.95;0.82;;;17.40;71.60;;;;;;4937115;27;44931;-61
2023/12/12 11:57:02;;;;;;;1.60;0.68;;;17.40;71.50;;;;;;4941072;27;45123;-61
2023/12/12 11:59:36;;;;;;;3.08;0.90;;;17.40;71.40;;;;;;4928935;27;46268;-62
2023/12/12 12:02:29;;;;;;;4.00;0.68;;;17.40;71.20;;;;;;4933142;27;44812;-62
2023/12/12 12:04:56;;;;;;;1.48;0.82;;;17.40;71.20;;;;;;4935206;27;45036;-61
2023/12/12 12:07:23;;;;;;;1.92;0.90;;;17.40;71.20;;;;;;4913407;27;44949;-62
2023/12/12 12:10:04;;;;;;;1.10;0.65;;;17.40;71.30;;;;;;4920077;27;46113;-62
2023/12/12 12:12:32;;;;;;;1.20;0.52;;;17.40;71.30;;;;;;4897387;27;44999;-62
2023/12/12 12:15:11;;;;;;;2.10;0.88;;;17.40;71.50;;;;;;4924599;27;44921;-62
2023/12/12 12:18:24;;;;;;;2.03;0.98;;;17.40;71.70;;;;;;4942278;27;45092;-62
2023/12/12 12:20:53;;;;;;;1.83;0.90;;;17.40;71.80;;;;;;4927088;27;46266;-62
2023/12/12 12:23:21;;;;;;;1.38;0.90;;;17.30;72.00;;;;;;4930150;27;45011;-62
2023/12/12 12:25:48;;;;;;;3.72;1.30;;;17.30;72.10;;;;;;4924861;27;45158;-63
2023/12/12 12:28:15;;;;;;;3.30;0.90;;;17.30;72.20;;;;;;4920975;27;44880;-62
2023/12/12 12:31:05;;;;;;;2.53;0.80;;;17.40;72.20;;;;;;4920128;27;45592;-61
2023/12/12 12:33:46;;;;;;;3.38;1.10;;;17.40;71.70;;;;;;4934916;27;44767;-61
2023/12/12 12:36:22;;;;;;;2.25;1.00;;;17.40;72.00;;;;;;4923760;27;44927;-61
2023/12/12 12:42:18;;;;;;;2.20;0.85;;;17.40;72.30;;;;;;4894566;27;45083;-61
2023/12/12 12:44:57;;;;;;;1.65;0.95;;;17.40;72.30;;;;;;4922587;27;45543;-61
2023/12/12 12:47:24;;;;;;;4.68;1.10;;;17.40;72.40;;;;;;4934147;27;45051;-61
2023/12/12 12:49:53;;;;;;;2.38;1.00;;;17.40;72.50;;;;;;4948388;27;44963;-61
2023/12/12 12:52:47;;;;;;;2.25;0.82;;;17.40;72.50;;;;;;4933688;27;45989;-62
2023/12/12 12:55:16;;;;;;;2.08;0.90;;;17.40;72.20;;;;;;4955670;27;44827;-61
2023/12/12 12:57:46;;;;;;;1.10;0.68;;;17.40;72.00;;;;;;4945966;27;44837;-61
2023/12/12 13:00:17;;;;;;;2.63;0.90;;;17.30;71.80;;;;;;4948599;27;44985;-61
2023/12/12 13:02:53;;;;;;;2.03;0.80;;;17.40;72.00;;;;;;4932427;27;45938;-61
2023/12/12 13:05:34;;;;;;;2.03;0.90;;;17.40;72.00;;;;;;4964956;27;44923;-61
2023/12/12 13:08:01;;;;;;;2.83;0.70;;;17.40;72.00;;;;;;4921818;27;44775;-61
2023/12/12 13:10:41;;;;;;;1.38;0.80;;;17.40;72.00;;;;;;4916078;27;44795;-62
2023/12/12 13:13:07;;;;;;;1.83;0.70;;;17.30;71.80;;;;;;4912932;27;46454;-62
2023/12/12 13:15:50;;;;;;;3.47;1.00;;;17.30;71.60;;;;;;4942567;27;44894;-62
2023/12/12 13:18:29;;;;;;;2.28;0.88;;;17.40;71.80;;;;;;4931026;27;44992;-62
2023/12/12 13:23:38;;;;;;;2.17;1.00;;;17.40;71.90;;;;;;4920401;27;45275;-62
2023/12/12 13:26:06;;;;;;;3.75;0.95;;;17.40;72.00;;;;;;4946743;27;45241;-62
2023/12/12 13:28:33;;;;;;;2.30;0.80;;;17.40;72.00;;;;;;4919853;27;44905;-62
2023/12/12 13:31:01;;;;;;;1.95;0.73;;;17.40;72.10;;;;;;4950195;27;45025;-62
2023/12/12 13:33:29;;;;;;;2.97;1.00;;;17.40;72.10;;;;;;4934868;27;46702;-62
2023/12/12 13:36:12;;;;;;;2.97;0.98;;;17.40;72.20;;;;;;4945922;27;45015;-62
2023/12/12 13:38:46;;;;;;;1.80;0.85;;;17.40;72.20;;;;;;4940313;27;44911;-62
2023/12/12 13:41:29;;;;;;;2.38;0.70;;;17.40;72.20;;;;;;4948001;27;44770;-62
2023/12/12 13:44:10;;;;;;;2.60;0.80;;;17.40;72.40;;;;;;4948903;27;45606;-62
2023/12/12 13:46:51;;;;;;;2.65;0.80;;;17.40;72.30;;;;;;4950880;27;45156;-62
2023/12/12 13:49:19;;;;;;;2.92;0.93;;;17.40;72.30;;;;;;4950954;27;44923;-62
2023/12/12 13:52:03;;;;;;;1.08;0.60;;;17.40;72.20;;;;;;4939380;27;44744;-62
2023/12/12 13:54:31;;;;;;;3.10;1.00;;;17.40;72.10;;;;;;4968568;27;46625;-62
2023/12/12 13:57:10;;;;;;;2.30;1.10;;;17.40;72.10;;;;;;4927477;27;44776;-62
2023/12/12 13:59:54;;;;;;;3.78;1.02;;;17.40;72.20;;;;;;4930030;27;44810;-61
2023/12/12 14:02:20;;;;;;;2.83;0.98;;;17.40;72.10;;;;;;4920641;27;44831;-62
2023/12/12 14:04:48;;;;;;;2.63;1.00;;;17.40;71.90;;;;;;4913202;27;45877;-62
2023/12/12 14:07:18;;;;;;;3.40;1.00;;;17.40;71.80;;;;;;4927855;27;44946;-62
2023/12/12 14:09:50;;;;;;;2.78;0.95;;;17.40;72.00;;;;;;4921151;27;45347;-62
2023/12/12 14:12:18;;;;;;;1.85;0.90;;;17.40;72.00;;;;;;4918503;27;44906;-61
2023/12/12 14:14:45;;;;;;;2.40;1.02;;;17.40;72.00;;;;;;4937526;27;45951;-62
2023/12/12 14:17:13;;;;;;;2.30;1.08;;;17.40;72.20;;;;;;4918433;27;44885;-62
2023/12/12 14:19:40;;;;;;;2.60;1.25;;;17.40;72.30;;;;;;4925958;27;44832;-62
2023/12/12 14:22:08;;;;;;;1.73;0.80;;;17.40;72.30;;;;;;4955047;27;44785;-62
2023/12/12 14:25:28;;;;;;;1.63;0.80;;;17.40;72.30;;;;;;4977149;27;46431;-62
2023/12/12 14:27:57;;;;;;;2.13;0.70;;;17.40;72.30;;;;;;4923563;27;44937;-62
2023/12/12 14:30:27;;;;;;;1.98;1.05;;;17.40;72.30;;;;;;4932614;27;44845;-62
2023/12/12 14:32:57;;;;;;;1.98;0.95;;;17.40;72.40;;;;;;4934043;27;45016;-62
2023/12/12 14:35:25;;;;;;;1.98;0.77;;;17.40;72.60;;;;;;4955779;27;46520;-62
2023/12/12 14:37:53;;;;;;;2.80;0.98;;;17.40;72.70;;;;;;4918206;27;44850;-62
2023/12/12 14:40:21;;;;;;;2.22;1.25;;;17.40;72.60;;;;;;4977281;27;44865;-62
2023/12/12 14:42:57;;;;;;;3.50;1.13;;;17.40;72.80;;;;;;4944773;27;44846;-62